Aérodrome :
LOGIN :

S'inscrire | Disclaimer

   EN    FR    IT 

 










Légende :    VFR   VFR Marginal   IFR   IFR Intensif   IFR Très Intensif
Visi : 
Plafond : 
>= 8 km
>= 3000ft
5 à 8 km
1000 à 3000 ft
1500m à 5 km
500 à 1000 ft
800 à 1500m
200 à 500 ft
< 800m
< 200 ft
Symboles :   Orages  Brouillard  Fortes neiges  Fortes précipitations  Vent > 20 kt
SIGMETs :   Divers  Orages  Givrage  Turbulence  Onde Orograph.  Cendres Volcan.







- Altitude de l'aérodrome : 17 ft
- Code IATA : GRQ


EHGG - Groningen Eelde

DERNIER METAR :
  • 221825Z AUTO 24005KT 9999 BKN039 BKN046 11/09 Q1016 NOSIG

METARs EXPIRÉS :
  • 221755Z AUTO 24005KT 9999 SCT037 SCT043 BKN049 11/09 Q1016 NOSIG
  • 221725Z AUTO 24005KT 9999 SCT042 11/09 Q1015 NOSIG
  • 221655Z AUTO 24005KT 9999 BKN035 BKN039 BKN044 12/09 Q1015 NOSIG
  • 221625Z AUTO 25006KT 9999 FEW034 SCT048 12/09 Q1016 TEMPO 7000 -SHRA FEW030TCU
  • 221555Z AUTO 29009KT 260V330 9999 -RA BKN026 BKN032 OVC045 13/08 Q1016 NOSIG

TAF TAF EHGG
Valide du 22 à 18h jusqu'au 24 à 00h UTC


221700Z 2218/2324 25008KT 9999 SCT025
PROB30
TEMPO 2218/2304 7000 -SHRA SCT030TCU
PROB30 2302/2307 3000 BR
BECMG 2308/2312 35012KT
PROB40
TEMPO 2312/2318 35015G25KT 6000 SHRA SCT025CB
PROB40
TEMPO 2318/2324 35025G35KT 4000 SHRA TSRAGS SCT020CB
Pas de NOTAMs connus pour ce terrain.



MET'MAP, la Météo Aéronautique d'un coup d'oeil ! - Copyright ORBIFLY Décembre 2007 - Disclaimer

ORBIFLY MET'MAP TEAM :

Programmation & Développement : Alexandra Zaïnal
Conception & Développement : Baudouin d'Aumeries
Co-Programmation & Développement : Marc-Olivier Méhu
Soutien technique & logistique : Manuel Goepfert

Contact : metmap@orbifly.com




SOURCES & CREDITS :

   NOAA